sensor_id;sensor_type;location;lat;lon;timestamp;temperature;humidity
45807;DHT22;31507;51.494;7.518;2023-06-10T00:01:41;17.20;99.90
45807;DHT22;31507;51.494;7.518;2023-06-10T00:04:07;17.20;99.90
45807;DHT22;31507;51.494;7.518;2023-06-10T00:06:32;17.20;99.90
45807;DHT22;31507;51.494;7.518;2023-06-10T00:09:10;17.20;99.90
45807;DHT22;31507;51.494;7.518;2023-06-10T00:11:40;17.20;99.90
45807;DHT22;31507;51.494;7.518;2023-06-10T00:14:06;17.20;99.90
45807;DHT22;31507;51.494;7.518;2023-06-10T00:16:32;17.20;99.90
45807;DHT22;31507;51.494;7.518;2023-06-10T00:19:03;17.20;99.90
45807;DHT22;31507;51.494;7.518;2023-06-10T00:21:33;17.10;99.90
45807;DHT22;31507;51.494;7.518;2023-06-10T00:24:08;17.10;99.90
45807;DHT22;31507;51.494;7.518;2023-06-10T00:26:40;17.10;99.90
45807;DHT22;31507;51.494;7.518;2023-06-10T00:29:07;17.00;99.90
45807;DHT22;31507;51.494;7.518;2023-06-10T00:31:34;17.10;99.90
45807;DHT22;31507;51.494;7.518;2023-06-10T00:34:00;17.00;99.90
45807;DHT22;31507;51.494;7.518;2023-06-10T00:36:26;17.00;99.90
45807;DHT22;31507;51.494;7.518;2023-06-10T00:38:52;17.10;99.90
45807;DHT22;31507;51.494;7.518;2023-06-10T00:41:18;17.10;99.90
45807;DHT22;31507;51.494;7.518;2023-06-10T00:43:43;17.10;99.90
45807;DHT22;31507;51.494;7.518;2023-06-10T00:46:10;17.10;99.90
45807;DHT22;31507;51.494;7.518;2023-06-10T00:48:38;17.00;99.90
45807;DHT22;31507;51.494;7.518;2023-06-10T00:51:05;17.00;99.90
45807;DHT22;31507;51.494;7.518;2023-06-10T00:53:32;16.90;99.90
45807;DHT22;31507;51.494;7.518;2023-06-10T00:55:58;16.70;99.90
45807;DHT22;31507;51.494;7.518;2023-06-10T00:58:24;16.60;99.90
45807;DHT22;31507;51.494;7.518;2023-06-10T01:00:51;16.60;99.90
45807;DHT22;31507;51.494;7.518;2023-06-10T01:03:17;16.50;99.90
45807;DHT22;31507;51.494;7.518;2023-06-10T01:05:45;16.50;99.90
45807;DHT22;31507;51.494;7.518;2023-06-10T01:08:25;16.40;99.90
45807;DHT22;31507;51.494;7.518;2023-06-10T01:11:00;16.30;99.90
45807;DHT22;31507;51.494;7.518;2023-06-10T01:13:26;16.20;99.90
45807;DHT22;31507;51.494;7.518;2023-06-10T01:15:55;16.10;99.90
45807;DHT22;31507;51.494;7.518;2023-06-10T01:18:21;16.00;99.90
45807;DHT22;31507;51.494;7.518;2023-06-10T01:20:48;16.00;99.90
45807;DHT22;31507;51.494;7.518;2023-06-10T01:23:14;16.00;99.90
45807;DHT22;31507;51.494;7.518;2023-06-10T01:25:47;16.00;99.90
45807;DHT22;31507;51.494;7.518;2023-06-10T01:28:25;16.00;99.90
45807;DHT22;31507;51.494;7.518;2023-06-10T01:33:47;15.80;99.90
45807;DHT22;31507;51.494;7.518;2023-06-10T01:36:15;15.70;99.90
45807;DHT22;31507;51.494;7.518;2023-06-10T01:38:45;15.60;99.90
45807;DHT22;31507;51.494;7.518;2023-06-10T01:41:17;15.50;99.90
45807;DHT22;31507;51.494;7.518;2023-06-10T01:43:44;15.50;99.90
45807;DHT22;31507;51.494;7.518;2023-06-10T01:46:10;15.50;99.90
45807;DHT22;31507;51.494;7.518;2023-06-10T01:48:37;15.50;99.90
45807;DHT22;31507;51.494;7.518;2023-06-10T01:51:04;15.40;99.90
45807;DHT22;31507;51.494;7.518;2023-06-10T01:53:29;15.40;99.90
45807;DHT22;31507;51.494;7.518;2023-06-10T01:55:55;15.40;99.90
45807;DHT22;31507;51.494;7.518;2023-06-10T01:58:21;15.30;99.90
45807;DHT22;31507;51.494;7.518;2023-06-10T02:00:47;15.20;99.90
45807;DHT22;31507;51.494;7.518;2023-06-10T02:03:12;15.10;99.90
45807;DHT22;31507;51.494;7.518;2023-06-10T02:05:38;15.00;99.90
45807;DHT22;31507;51.494;7.518;2023-06-10T02:08:04;15.00;99.90
45807;DHT22;31507;51.494;7.518;2023-06-10T02:10:33;14.90;99.90
45807;DHT22;31507;51.494;7.518;2023-06-10T02:12:58;14.80;99.90
45807;DHT22;31507;51.494;7.518;2023-06-10T02:15:24;14.80;99.90
45807;DHT22;31507;51.494;7.518;2023-06-10T02:17:50;14.70;99.90
45807;DHT22;31507;51.494;7.518;2023-06-10T02:20:16;14.60;99.90
45807;DHT22;31507;51.494;7.518;2023-06-10T02:22:41;14.50;99.90
45807;DHT22;31507;51.494;7.518;2023-06-10T02:25:07;14.50;99.90
45807;DHT22;31507;51.494;7.518;2023-06-10T02:27:33;14.50;99.90
45807;DHT22;31507;51.494;7.518;2023-06-10T02:29:59;14.50;99.90
45807;DHT22;31507;51.494;7.518;2023-06-10T02:32:24;14.40;99.90
45807;DHT22;31507;51.494;7.518;2023-06-10T02:34:51;14.40;99.90
45807;DHT22;31507;51.494;7.518;2023-06-10T02:37:16;14.30;99.90
45807;DHT22;31507;51.494;7.518;2023-06-10T02:39:42;14.30;99.90
45807;DHT22;31507;51.494;7.518;2023-06-10T02:42:08;14.30;99.90
45807;DHT22;31507;51.494;7.518;2023-06-10T02:44:34;14.40;99.90
45807;DHT22;31507;51.494;7.518;2023-06-10T02:46:59;14.30;99.90
45807;DHT22;31507;51.494;7.518;2023-06-10T02:49:25;14.30;99.90
45807;DHT22;31507;51.494;7.518;2023-06-10T02:51:53;14.30;99.90
45807;DHT22;31507;51.494;7.518;2023-06-10T02:54:22;14.20;99.90
45807;DHT22;31507;51.494;7.518;2023-06-10T02:56:48;14.20;99.90
45807;DHT22;31507;51.494;7.518;2023-06-10T02:59:14;14.20;99.90
45807;DHT22;31507;51.494;7.518;2023-06-10T03:01:40;14.30;99.90
45807;DHT22;31507;51.494;7.518;2023-06-10T03:04:06;14.30;99.90
45807;DHT22;31507;51.494;7.518;2023-06-10T03:06:32;14.30;99.90
45807;DHT22;31507;51.494;7.518;2023-06-10T03:09:02;14.30;99.90
45807;DHT22;31507;51.494;7.518;2023-06-10T03:11:29;14.30;99.90
45807;DHT22;31507;51.494;7.518;2023-06-10T03:13:56;14.30;99.90
45807;DHT22;31507;51.494;7.518;2023-06-10T03:16:22;14.30;99.90
45807;DHT22;31507;51.494;7.518;2023-06-10T03:18:49;14.20;99.90
45807;DHT22;31507;51.494;7.518;2023-06-10T03:21:14;14.30;99.90
45807;DHT22;31507;51.494;7.518;2023-06-10T03:23:40;14.20;99.90
45807;DHT22;31507;51.494;7.518;2023-06-10T03:26:06;14.30;99.90
45807;DHT22;31507;51.494;7.518;2023-06-10T03:28:31;14.30;99.90
45807;DHT22;31507;51.494;7.518;2023-06-10T03:30:57;14.30;99.90
45807;DHT22;31507;51.494;7.518;2023-06-10T03:33:23;14.30;99.90
45807;DHT22;31507;51.494;7.518;2023-06-10T03:35:49;14.30;99.90
45807;DHT22;31507;51.494;7.518;2023-06-10T03:38:14;14.30;99.90
45807;DHT22;31507;51.494;7.518;2023-06-10T03:40:40;14.30;99.90
45807;DHT22;31507;51.494;7.518;2023-06-10T03:43:06;14.40;99.90
45807;DHT22;31507;51.494;7.518;2023-06-10T03:45:31;14.30;99.90
45807;DHT22;31507;51.494;7.518;2023-06-10T03:47:58;14.40;99.90
45807;DHT22;31507;51.494;7.518;2023-06-10T03:50:24;14.40;99.90
45807;DHT22;31507;51.494;7.518;2023-06-10T03:52:50;14.50;99.90
45807;DHT22;31507;51.494;7.518;2023-06-10T03:55:16;14.50;99.90
45807;DHT22;31507;51.494;7.518;2023-06-10T03:57:42;14.50;99.90
45807;DHT22;31507;51.494;7.518;2023-06-10T04:00:09;14.50;99.90
45807;DHT22;31507;51.494;7.518;2023-06-10T04:02:38;14.60;99.90
45807;DHT22;31507;51.494;7.518;2023-06-10T04:05:15;14.70;99.90
45807;DHT22;31507;51.494;7.518;2023-06-10T04:07:42;15.00;99.90
45807;DHT22;31507;51.494;7.518;2023-06-10T04:10:09;15.00;99.90
45807;DHT22;31507;51.494;7.518;2023-06-10T04:12:36;15.10;99.90
45807;DHT22;31507;51.494;7.518;2023-06-10T04:15:02;15.10;99.90
45807;DHT22;31507;51.494;7.518;2023-06-10T04:17:28;15.10;99.90
45807;DHT22;31507;51.494;7.518;2023-06-10T04:19:54;15.20;99.90
45807;DHT22;31507;51.494;7.518;2023-06-10T04:22:20;15.30;99.90
45807;DHT22;31507;51.494;7.518;2023-06-10T04:24:46;15.30;99.90
45807;DHT22;31507;51.494;7.518;2023-06-10T04:27:12;15.30;99.90
45807;DHT22;31507;51.494;7.518;2023-06-10T04:29:37;15.30;99.90
45807;DHT22;31507;51.494;7.518;2023-06-10T04:32:03;15.30;99.90
45807;DHT22;31507;51.494;7.518;2023-06-10T04:34:31;15.30;99.90
45807;DHT22;31507;51.494;7.518;2023-06-10T04:36:56;15.40;99.90
45807;DHT22;31507;51.494;7.518;2023-06-10T04:39:22;15.40;99.90
45807;DHT22;31507;51.494;7.518;2023-06-10T04:41:48;15.40;99.90
45807;DHT22;31507;51.494;7.518;2023-06-10T04:44:14;15.40;99.90
45807;DHT22;31507;51.494;7.518;2023-06-10T04:46:39;15.40;99.90
45807;DHT22;31507;51.494;7.518;2023-06-10T04:49:05;15.50;99.90
45807;DHT22;31507;51.494;7.518;2023-06-10T04:51:31;15.50;99.90
45807;DHT22;31507;51.494;7.518;2023-06-10T04:53:57;15.60;99.90
45807;DHT22;31507;51.494;7.518;2023-06-10T04:56:23;15.60;99.90
45807;DHT22;31507;51.494;7.518;2023-06-10T04:58:49;15.70;99.90
45807;DHT22;31507;51.494;7.518;2023-06-10T05:01:15;15.80;99.90
45807;DHT22;31507;51.494;7.518;2023-06-10T05:03:41;15.90;99.90
45807;DHT22;31507;51.494;7.518;2023-06-10T05:06:07;16.00;99.90
45807;DHT22;31507;51.494;7.518;2023-06-10T05:08:33;16.10;99.90
45807;DHT22;31507;51.494;7.518;2023-06-10T05:10:59;16.20;99.90
45807;DHT22;31507;51.494;7.518;2023-06-10T05:13:24;16.20;99.90
45807;DHT22;31507;51.494;7.518;2023-06-10T05:15:50;16.40;99.90
45807;DHT22;31507;51.494;7.518;2023-06-10T05:18:16;16.50;99.90
45807;DHT22;31507;51.494;7.518;2023-06-10T05:20:41;16.60;99.90
45807;DHT22;31507;51.494;7.518;2023-06-10T05:23:07;16.70;99.90
45807;DHT22;31507;51.494;7.518;2023-06-10T05:25:33;16.80;99.90
45807;DHT22;31507;51.494;7.518;2023-06-10T05:27:59;16.90;99.90
45807;DHT22;31507;51.494;7.518;2023-06-10T05:30:25;17.10;99.90
45807;DHT22;31507;51.494;7.518;2023-06-10T05:32:51;17.30;99.90
45807;DHT22;31507;51.494;7.518;2023-06-10T05:35:18;17.50;99.90
45807;DHT22;31507;51.494;7.518;2023-06-10T05:37:46;17.70;99.90
45807;DHT22;31507;51.494;7.518;2023-06-10T05:40:16;17.90;99.90
45807;DHT22;31507;51.494;7.518;2023-06-10T05:42:42;18.40;99.90
45807;DHT22;31507;51.494;7.518;2023-06-10T05:45:11;19.00;99.90
45807;DHT22;31507;51.494;7.518;2023-06-10T05:47:36;20.00;99.90
45807;DHT22;31507;51.494;7.518;2023-06-10T05:50:02;20.80;99.90
45807;DHT22;31507;51.494;7.518;2023-06-10T05:52:39;21.50;99.90
45807;DHT22;31507;51.494;7.518;2023-06-10T05:55:09;21.80;99.90
45807;DHT22;31507;51.494;7.518;2023-06-10T05:57:35;22.10;99.90
45807;DHT22;31507;51.494;7.518;2023-06-10T06:00:00;22.40;99.10
45807;DHT22;31507;51.494;7.518;2023-06-10T06:02:26;22.60;97.90
45807;DHT22;31507;51.494;7.518;2023-06-10T06:04:52;22.80;96.20
45807;DHT22;31507;51.494;7.518;2023-06-10T06:07:17;22.90;95.10
45807;DHT22;31507;51.494;7.518;2023-06-10T06:09:46;23.10;94.60
45807;DHT22;31507;51.494;7.518;2023-06-10T06:12:12;23.40;93.90
45807;DHT22;31507;51.494;7.518;2023-06-10T06:14:38;23.70;92.80
45807;DHT22;31507;51.494;7.518;2023-06-10T06:17:07;23.80;92.00
45807;DHT22;31507;51.494;7.518;2023-06-10T06:19:33;24.10;90.60
45807;DHT22;31507;51.494;7.518;2023-06-10T06:21:59;24.10;90.00
45807;DHT22;31507;51.494;7.518;2023-06-10T06:24:24;24.00;89.30
45807;DHT22;31507;51.494;7.518;2023-06-10T06:26:50;23.80;88.80
45807;DHT22;31507;51.494;7.518;2023-06-10T06:29:16;23.60;88.30
45807;DHT22;31507;51.494;7.518;2023-06-10T06:31:41;23.00;90.20
45807;DHT22;31507;51.494;7.518;2023-06-10T06:34:07;22.30;92.90
45807;DHT22;31507;51.494;7.518;2023-06-10T06:36:32;22.00;94.40
45807;DHT22;31507;51.494;7.518;2023-06-10T06:38:58;21.80;94.90
45807;DHT22;31507;51.494;7.518;2023-06-10T06:41:27;21.80;95.40
45807;DHT22;31507;51.494;7.518;2023-06-10T06:43:54;22.30;94.30
45807;DHT22;31507;51.494;7.518;2023-06-10T06:46:20;22.90;92.50
45807;DHT22;31507;51.494;7.518;2023-06-10T06:48:46;23.30;91.10
45807;DHT22;31507;51.494;7.518;2023-06-10T06:51:12;23.70;90.60
45807;DHT22;31507;51.494;7.518;2023-06-10T06:53:38;23.90;89.20
45807;DHT22;31507;51.494;7.518;2023-06-10T06:56:10;23.90;88.10
45807;DHT22;31507;51.494;7.518;2023-06-10T06:58:35;24.00;87.50
45807;DHT22;31507;51.494;7.518;2023-06-10T07:01:01;24.10;87.30
45807;DHT22;31507;51.494;7.518;2023-06-10T07:03:27;24.10;83.50
45807;DHT22;31507;51.494;7.518;2023-06-10T07:05:52;24.00;86.00
45807;DHT22;31507;51.494;7.518;2023-06-10T07:08:18;24.10;85.30
45807;DHT22;31507;51.494;7.518;2023-06-10T07:10:43;24.20;85.30
45807;DHT22;31507;51.494;7.518;2023-06-10T07:13:09;24.20;84.70
45807;DHT22;31507;51.494;7.518;2023-06-10T07:15:35;24.30;84.50
45807;DHT22;31507;51.494;7.518;2023-06-10T07:18:01;24.30;83.20
45807;DHT22;31507;51.494;7.518;2023-06-10T07:20:26;24.40;83.10
45807;DHT22;31507;51.494;7.518;2023-06-10T07:22:52;24.40;83.10
45807;DHT22;31507;51.494;7.518;2023-06-10T07:25:18;24.40;82.10
45807;DHT22;31507;51.494;7.518;2023-06-10T07:27:43;24.40;83.00
45807;DHT22;31507;51.494;7.518;2023-06-10T07:30:09;24.40;81.20
45807;DHT22;31507;51.494;7.518;2023-06-10T07:32:36;24.20;82.50
45807;DHT22;31507;51.494;7.518;2023-06-10T07:35:02;24.30;82.00
45807;DHT22;31507;51.494;7.518;2023-06-10T07:37:27;24.40;81.40
45807;DHT22;31507;51.494;7.518;2023-06-10T07:39:53;24.60;81.20
45807;DHT22;31507;51.494;7.518;2023-06-10T07:42:18;24.60;81.00
45807;DHT22;31507;51.494;7.518;2023-06-10T07:44:44;24.70;80.90
45807;DHT22;31507;51.494;7.518;2023-06-10T07:47:10;24.80;80.60
45807;DHT22;31507;51.494;7.518;2023-06-10T07:49:35;25.00;79.80
45807;DHT22;31507;51.494;7.518;2023-06-10T07:52:01;25.20;78.90
45807;DHT22;31507;51.494;7.518;2023-06-10T07:54:27;25.40;79.80
45807;DHT22;31507;51.494;7.518;2023-06-10T07:56:53;25.50;80.50
45807;DHT22;31507;51.494;7.518;2023-06-10T07:59:18;25.50;79.10
45807;DHT22;31507;51.494;7.518;2023-06-10T08:01:44;25.60;78.10
45807;DHT22;31507;51.494;7.518;2023-06-10T08:04:10;25.60;77.50
45807;DHT22;31507;51.494;7.518;2023-06-10T08:06:35;25.80;77.50
45807;DHT22;31507;51.494;7.518;2023-06-10T08:09:02;25.80;74.90
45807;DHT22;31507;51.494;7.518;2023-06-10T08:11:29;25.80;75.20
45807;DHT22;31507;51.494;7.518;2023-06-10T08:13:55;25.90;74.50
45807;DHT22;31507;51.494;7.518;2023-06-10T08:16:21;26.00;74.40
45807;DHT22;31507;51.494;7.518;2023-06-10T08:18:46;26.10;75.30
45807;DHT22;31507;51.494;7.518;2023-06-10T08:21:12;26.40;75.20
45807;DHT22;31507;51.494;7.518;2023-06-10T08:23:37;26.40;73.90
45807;DHT22;31507;51.494;7.518;2023-06-10T08:26:03;26.30;73.00
45807;DHT22;31507;51.494;7.518;2023-06-10T08:28:29;26.30;73.70
45807;DHT22;31507;51.494;7.518;2023-06-10T08:30:54;26.40;72.50
45807;DHT22;31507;51.494;7.518;2023-06-10T08:33:20;26.30;70.60
45807;DHT22;31507;51.494;7.518;2023-06-10T08:35:45;26.10;72.50
45807;DHT22;31507;51.494;7.518;2023-06-10T08:38:11;26.30;71.80
45807;DHT22;31507;51.494;7.518;2023-06-10T08:40:37;26.30;71.50
45807;DHT22;31507;51.494;7.518;2023-06-10T08:43:07;26.30;70.90
45807;DHT22;31507;51.494;7.518;2023-06-10T08:45:35;26.40;70.60
45807;DHT22;31507;51.494;7.518;2023-06-10T08:48:03;26.40;71.30
45807;DHT22;31507;51.494;7.518;2023-06-10T08:50:36;26.60;71.00
45807;DHT22;31507;51.494;7.518;2023-06-10T08:53:05;26.70;70.40
45807;DHT22;31507;51.494;7.518;2023-06-10T08:55:33;26.70;70.80
45807;DHT22;31507;51.494;7.518;2023-06-10T08:58:00;27.00;71.40
45807;DHT22;31507;51.494;7.518;2023-06-10T09:00:28;27.40;70.30
45807;DHT22;31507;51.494;7.518;2023-06-10T09:02:58;27.60;70.60
45807;DHT22;31507;51.494;7.518;2023-06-10T09:05:24;27.60;69.80
45807;DHT22;31507;51.494;7.518;2023-06-10T09:07:52;27.40;70.40
45807;DHT22;31507;51.494;7.518;2023-06-10T09:10:18;27.40;71.80
45807;DHT22;31507;51.494;7.518;2023-06-10T09:12:44;27.40;72.00
45807;DHT22;31507;51.494;7.518;2023-06-10T09:15:09;27.70;72.80
45807;DHT22;31507;51.494;7.518;2023-06-10T09:17:37;28.00;70.20
45807;DHT22;31507;51.494;7.518;2023-06-10T09:20:03;27.90;69.00
45807;DHT22;31507;51.494;7.518;2023-06-10T09:22:29;28.00;68.40
45807;DHT22;31507;51.494;7.518;2023-06-10T09:25:08;28.00;68.30
45807;DHT22;31507;51.494;7.518;2023-06-10T09:27:47;28.00;67.10
45807;DHT22;31507;51.494;7.518;2023-06-10T09:30:31;28.00;66.80
45807;DHT22;31507;51.494;7.518;2023-06-10T09:32:59;28.20;66.30
45807;DHT22;31507;51.494;7.518;2023-06-10T09:35:26;28.40;65.40
45807;DHT22;31507;51.494;7.518;2023-06-10T09:37:53;28.40;66.50
45807;DHT22;31507;51.494;7.518;2023-06-10T09:40:19;28.50;66.30
45807;DHT22;31507;51.494;7.518;2023-06-10T09:42:45;28.60;66.60
45807;DHT22;31507;51.494;7.518;2023-06-10T09:45:11;28.80;65.90
45807;DHT22;31507;51.494;7.518;2023-06-10T09:47:36;28.90;65.60
45807;DHT22;31507;51.494;7.518;2023-06-10T09:50:02;28.80;65.60
45807;DHT22;31507;51.494;7.518;2023-06-10T09:52:29;29.00;66.00
45807;DHT22;31507;51.494;7.518;2023-06-10T09:54:59;29.00;65.00
45807;DHT22;31507;51.494;7.518;2023-06-10T09:57:26;29.00;64.10
45807;DHT22;31507;51.494;7.518;2023-06-10T09:59:54;29.10;63.40
45807;DHT22;31507;51.494;7.518;2023-06-10T10:02:21;29.00;62.70
45807;DHT22;31507;51.494;7.518;2023-06-10T10:04:46;28.80;62.60
45807;DHT22;31507;51.494;7.518;2023-06-10T10:07:12;28.70;63.80
45807;DHT22;31507;51.494;7.518;2023-06-10T10:09:39;28.80;63.70
45807;DHT22;31507;51.494;7.518;2023-06-10T10:12:14;28.80;63.30
45807;DHT22;31507;51.494;7.518;2023-06-10T10:14:45;29.10;62.50
45807;DHT22;31507;51.494;7.518;2023-06-10T10:17:11;29.20;63.40
45807;DHT22;31507;51.494;7.518;2023-06-10T10:20:04;29.30;62.70
45807;DHT22;31507;51.494;7.518;2023-06-10T10:22:43;29.40;63.40
45807;DHT22;31507;51.494;7.518;2023-06-10T10:25:16;29.60;61.10
45807;DHT22;31507;51.494;7.518;2023-06-10T10:27:58;29.60;61.80
45807;DHT22;31507;51.494;7.518;2023-06-10T10:30:25;29.50;60.60
45807;DHT22;31507;51.494;7.518;2023-06-10T10:35:23;29.70;61.80
45807;DHT22;31507;51.494;7.518;2023-06-10T10:37:54;30.10;60.60
45807;DHT22;31507;51.494;7.518;2023-06-10T10:40:21;30.20;59.10
45807;DHT22;31507;51.494;7.518;2023-06-10T10:42:49;30.10;60.10
45807;DHT22;31507;51.494;7.518;2023-06-10T10:45:15;30.20;61.30
45807;DHT22;31507;51.494;7.518;2023-06-10T10:47:43;30.20;60.50
45807;DHT22;31507;51.494;7.518;2023-06-10T10:50:17;30.20;61.20
45807;DHT22;31507;51.494;7.518;2023-06-10T10:52:52;30.00;60.10
45807;DHT22;31507;51.494;7.518;2023-06-10T10:55:19;30.00;58.00
45807;DHT22;31507;51.494;7.518;2023-06-10T10:57:44;30.10;58.60
45807;DHT22;31507;51.494;7.518;2023-06-10T11:00:11;30.00;58.70
45807;DHT22;31507;51.494;7.518;2023-06-10T11:02:41;30.10;59.40
45807;DHT22;31507;51.494;7.518;2023-06-10T11:05:14;30.30;58.30
45807;DHT22;31507;51.494;7.518;2023-06-10T11:07:40;30.40;58.70
45807;DHT22;31507;51.494;7.518;2023-06-10T11:10:17;30.60;58.50
45807;DHT22;31507;51.494;7.518;2023-06-10T11:15:25;30.40;57.50
45807;DHT22;31507;51.494;7.518;2023-06-10T11:20:44;30.50;58.50
45807;DHT22;31507;51.494;7.518;2023-06-10T11:23:10;30.60;57.10
45807;DHT22;31507;51.494;7.518;2023-06-10T11:25:39;30.50;57.00
45807;DHT22;31507;51.494;7.518;2023-06-10T11:28:18;30.60;57.90
45807;DHT22;31507;51.494;7.518;2023-06-10T11:30:44;30.70;56.50
45807;DHT22;31507;51.494;7.518;2023-06-10T11:33:16;30.70;56.30
45807;DHT22;31507;51.494;7.518;2023-06-10T11:35:42;30.80;55.90
45807;DHT22;31507;51.494;7.518;2023-06-10T11:38:09;30.90;56.80
45807;DHT22;31507;51.494;7.518;2023-06-10T11:40:34;31.10;57.30
45807;DHT22;31507;51.494;7.518;2023-06-10T11:43:03;31.20;57.10
45807;DHT22;31507;51.494;7.518;2023-06-10T11:45:29;31.20;56.70
45807;DHT22;31507;51.494;7.518;2023-06-10T11:47:59;31.00;56.40
45807;DHT22;31507;51.494;7.518;2023-06-10T11:50:31;30.90;56.50
45807;DHT22;31507;51.494;7.518;2023-06-10T11:52:57;30.90;56.70
45807;DHT22;31507;51.494;7.518;2023-06-10T11:55:25;30.90;56.20
45807;DHT22;31507;51.494;7.518;2023-06-10T11:57:51;31.00;55.30
45807;DHT22;31507;51.494;7.518;2023-06-10T12:00:23;31.00;55.80
45807;DHT22;31507;51.494;7.518;2023-06-10T12:02:59;31.10;55.20
45807;DHT22;31507;51.494;7.518;2023-06-10T12:05:24;31.00;54.70
45807;DHT22;31507;51.494;7.518;2023-06-10T12:08:08;31.20;55.10
45807;DHT22;31507;51.494;7.518;2023-06-10T12:10:42;31.10;53.80
45807;DHT22;31507;51.494;7.518;2023-06-10T12:13:11;31.30;55.40
45807;DHT22;31507;51.494;7.518;2023-06-10T12:15:37;31.50;53.70
45807;DHT22;31507;51.494;7.518;2023-06-10T12:18:03;31.40;53.70
45807;DHT22;31507;51.494;7.518;2023-06-10T12:20:30;31.40;53.70
45807;DHT22;31507;51.494;7.518;2023-06-10T12:23:00;31.40;53.50
45807;DHT22;31507;51.494;7.518;2023-06-10T12:25:33;31.20;53.70
45807;DHT22;31507;51.494;7.518;2023-06-10T12:27:59;31.40;53.30
45807;DHT22;31507;51.494;7.518;2023-06-10T12:30:26;31.40;53.70
45807;DHT22;31507;51.494;7.518;2023-06-10T12:32:53;31.40;53.70
45807;DHT22;31507;51.494;7.518;2023-06-10T12:35:20;31.60;53.80
45807;DHT22;31507;51.494;7.518;2023-06-10T12:40:31;31.50;53.70
45807;DHT22;31507;51.494;7.518;2023-06-10T12:42:58;31.50;53.20
45807;DHT22;31507;51.494;7.518;2023-06-10T12:45:34;31.20;52.40
45807;DHT22;31507;51.494;7.518;2023-06-10T12:50:51;31.60;51.90
45807;DHT22;31507;51.494;7.518;2023-06-10T12:53:18;31.80;52.60
45807;DHT22;31507;51.494;7.518;2023-06-10T12:55:44;31.90;52.20
45807;DHT22;31507;51.494;7.518;2023-06-10T12:58:11;32.10;52.10
45807;DHT22;31507;51.494;7.518;2023-06-10T13:00:37;32.10;52.00
45807;DHT22;31507;51.494;7.518;2023-06-10T13:03:03;32.00;51.00
45807;DHT22;31507;51.494;7.518;2023-06-10T13:05:31;31.70;51.20
45807;DHT22;31507;51.494;7.518;2023-06-10T13:07:57;31.50;51.20
45807;DHT22;31507;51.494;7.518;2023-06-10T13:10:23;31.50;51.10
45807;DHT22;31507;51.494;7.518;2023-06-10T13:12:49;31.50;51.50
45807;DHT22;31507;51.494;7.518;2023-06-10T13:15:15;31.70;50.90
45807;DHT22;31507;51.494;7.518;2023-06-10T13:17:41;31.90;51.50
45807;DHT22;31507;51.494;7.518;2023-06-10T13:20:07;32.00;51.20
45807;DHT22;31507;51.494;7.518;2023-06-10T13:22:34;32.10;50.80
45807;DHT22;31507;51.494;7.518;2023-06-10T13:25:05;31.90;50.50
45807;DHT22;31507;51.494;7.518;2023-06-10T13:27:33;32.00;50.80
45807;DHT22;31507;51.494;7.518;2023-06-10T13:29:59;32.00;50.60
45807;DHT22;31507;51.494;7.518;2023-06-10T13:32:24;31.90;50.90
45807;DHT22;31507;51.494;7.518;2023-06-10T13:34:50;31.70;50.70
45807;DHT22;31507;51.494;7.518;2023-06-10T13:37:16;31.70;50.80
45807;DHT22;31507;51.494;7.518;2023-06-10T13:39:43;31.80;51.40
45807;DHT22;31507;51.494;7.518;2023-06-10T13:42:09;31.90;51.50
45807;DHT22;31507;51.494;7.518;2023-06-10T13:44:34;32.10;51.30
45807;DHT22;31507;51.494;7.518;2023-06-10T13:47:02;32.00;51.20
45807;DHT22;31507;51.494;7.518;2023-06-10T13:49:28;31.80;50.80
45807;DHT22;31507;51.494;7.518;2023-06-10T13:51:54;31.70;50.30
45807;DHT22;31507;51.494;7.518;2023-06-10T13:54:20;31.60;50.50
45807;DHT22;31507;51.494;7.518;2023-06-10T13:56:46;31.60;51.10
45807;DHT22;31507;51.494;7.518;2023-06-10T13:59:12;31.70;50.70
45807;DHT22;31507;51.494;7.518;2023-06-10T14:01:38;31.90;50.60
45807;DHT22;31507;51.494;7.518;2023-06-10T14:04:04;31.90;51.10
45807;DHT22;31507;51.494;7.518;2023-06-10T14:06:30;31.90;51.00
45807;DHT22;31507;51.494;7.518;2023-06-10T14:08:56;32.00;50.60
45807;DHT22;31507;51.494;7.518;2023-06-10T14:11:21;31.80;50.10
45807;DHT22;31507;51.494;7.518;2023-06-10T14:13:47;31.80;50.90
45807;DHT22;31507;51.494;7.518;2023-06-10T14:16:13;31.90;50.50
45807;DHT22;31507;51.494;7.518;2023-06-10T14:18:38;31.80;50.80
45807;DHT22;31507;51.494;7.518;2023-06-10T14:21:04;31.80;50.70
45807;DHT22;31507;51.494;7.518;2023-06-10T14:23:30;31.80;50.90
45807;DHT22;31507;51.494;7.518;2023-06-10T14:25:55;31.90;51.00
45807;DHT22;31507;51.494;7.518;2023-06-10T14:28:21;31.90;50.70
45807;DHT22;31507;51.494;7.518;2023-06-10T14:30:46;31.90;51.50
45807;DHT22;31507;51.494;7.518;2023-06-10T14:33:12;32.00;50.50
45807;DHT22;31507;51.494;7.518;2023-06-10T14:35:38;32.10;50.10
45807;DHT22;31507;51.494;7.518;2023-06-10T14:38:03;32.20;50.30
45807;DHT22;31507;51.494;7.518;2023-06-10T14:40:29;32.20;50.80
45807;DHT22;31507;51.494;7.518;2023-06-10T14:42:55;31.90;50.00
45807;DHT22;31507;51.494;7.518;2023-06-10T14:45:21;31.70;50.10
45807;DHT22;31507;51.494;7.518;2023-06-10T14:47:47;31.50;50.20
45807;DHT22;31507;51.494;7.518;2023-06-10T14:50:13;31.50;50.00
45807;DHT22;31507;51.494;7.518;2023-06-10T14:52:39;31.50;50.30
45807;DHT22;31507;51.494;7.518;2023-06-10T14:55:06;31.60;50.70
45807;DHT22;31507;51.494;7.518;2023-06-10T14:57:31;31.60;50.50
45807;DHT22;31507;51.494;7.518;2023-06-10T14:59:57;31.60;50.60
45807;DHT22;31507;51.494;7.518;2023-06-10T15:02:23;31.60;50.20
45807;DHT22;31507;51.494;7.518;2023-06-10T15:04:48;31.60;50.00
45807;DHT22;31507;51.494;7.518;2023-06-10T15:07:14;31.50;50.40
45807;DHT22;31507;51.494;7.518;2023-06-10T15:09:43;31.50;50.30
45807;DHT22;31507;51.494;7.518;2023-06-10T15:12:09;31.60;50.20
45807;DHT22;31507;51.494;7.518;2023-06-10T15:14:36;31.60;50.10
45807;DHT22;31507;51.494;7.518;2023-06-10T15:17:01;31.30;50.60
45807;DHT22;31507;51.494;7.518;2023-06-10T15:19:28;31.50;50.70
45807;DHT22;31507;51.494;7.518;2023-06-10T15:21:53;31.50;50.90
45807;DHT22;31507;51.494;7.518;2023-06-10T15:24:19;31.50;50.80
45807;DHT22;31507;51.494;7.518;2023-06-10T15:26:45;31.30;51.40
45807;DHT22;31507;51.494;7.518;2023-06-10T15:29:10;31.40;50.90
45807;DHT22;31507;51.494;7.518;2023-06-10T15:31:37;31.40;51.10
45807;DHT22;31507;51.494;7.518;2023-06-10T15:34:03;31.30;50.30
45807;DHT22;31507;51.494;7.518;2023-06-10T15:36:29;31.20;50.70
45807;DHT22;31507;51.494;7.518;2023-06-10T15:39:02;31.10;51.10
45807;DHT22;31507;51.494;7.518;2023-06-10T15:41:29;31.10;52.10
45807;DHT22;31507;51.494;7.518;2023-06-10T15:43:55;31.20;52.00
45807;DHT22;31507;51.494;7.518;2023-06-10T15:46:20;31.20;51.80